TimeEST,TemperatureF,Dew PointF,Humidity,Sea Level PressureIn,VisibilityMPH,Wind Direction,Wind SpeedMPH,Gust SpeedMPH,PrecipitationIn,Events,Conditions,WindDirDegrees,DateUTC
12:15 AM,35.6,22.1,58,30.04,10.0,Calm,Calm,-,N/A,,Clear,0,2013-01-24 05:15:00
12:35 AM,35.6,22.1,58,30.02,10.0,WSW,3.5,-,N/A,,Clear,240,2013-01-24 05:35:00
12:55 AM,32.5,22.5,66,30.01,10.0,West,3.5,-,N/A,,Clear,260,2013-01-24 05:55:00
1:15 AM,37.2,22.8,56,30.01,10.0,WSW,6.9,-,N/A,,Clear,250,2013-01-24 06:15:00
1:35 AM,36.7,22.8,57,30.00,10.0,WSW,5.8,-,N/A,,Clear,240,2013-01-24 06:35:00
1:55 AM,37.4,23.4,57,30.00,10.0,WSW,6.9,-,N/A,,Clear,250,2013-01-24 06:55:00
2:15 AM,38.3,23.5,55,30.00,10.0,WSW,6.9,-,N/A,,Clear,250,2013-01-24 07:15:00
2:35 AM,37.9,23.9,57,29.99,10.0,WSW,4.6,-,N/A,,Clear,250,2013-01-24 07:35:00
2:55 AM,39.2,25.0,57,29.98,10.0,WSW,6.9,-,N/A,,Clear,240,2013-01-24 07:55:00
3:15 AM,39.9,25.7,57,29.98,10.0,WSW,4.6,-,N/A,,Clear,250,2013-01-24 08:15:00
3:35 AM,42.1,26.8,55,29.98,10.0,West,5.8,-,N/A,,Clear,260,2013-01-24 08:35:00
3:55 AM,43.5,27.0,52,29.98,10.0,West,15.0,23.0,N/A,,Clear,280,2013-01-24 08:55:00
4:15 AM,46.6,26.6,46,29.98,10.0,WNW,20.7,26.5,N/A,,Clear,290,2013-01-24 09:15:00
4:35 AM,46.8,26.2,45,29.98,10.0,WNW,16.1,33.4,N/A,,Clear,290,2013-01-24 09:35:00
4:55 AM,46.2,25.9,45,29.98,10.0,WNW,13.8,25.3,N/A,,Clear,290,2013-01-24 09:55:00
5:15 AM,46.0,24.6,43,30.00,10.0,WNW,25.3,34.5,N/A,,Clear,290,2013-01-24 10:15:00
5:35 AM,45.5,24.1,43,30.00,10.0,West,18.4,34.5,N/A,,Clear,280,2013-01-24 10:35:00
5:55 AM,45.5,22.6,41,30.00,10.0,West,13.8,38.0,N/A,,Clear,280,2013-01-24 10:55:00
6:15 AM,44.8,21.0,39,30.01,10.0,West,21.9,33.4,N/A,,Clear,280,2013-01-24 11:15:00
6:35 AM,44.1,20.1,39,30.02,10.0,West,23.0,34.5,N/A,,Clear,270,2013-01-24 11:35:00
6:55 AM,43.2,18.7,38,30.04,10.0,West,23.0,33.4,N/A,,Clear,270,2013-01-24 11:55:00
7:15 AM,42.3,17.2,37,30.05,10.0,West,19.6,29.9,N/A,,Clear,270,2013-01-24 12:15:00
7:35 AM,41.7,13.5,32,30.06,10.0,WNW,10.4,26.5,N/A,,Clear,300,2013-01-24 12:35:00
7:55 AM,40.3,14.0,34,30.09,10.0,Calm,Calm,-,N/A,,Clear,0,2013-01-24 12:55:00
8:15 AM,40.8,5.4,23,30.11,10.0,WNW,5.8,-,N/A,,Clear,300,2013-01-24 13:15:00
8:35 AM,41.0,3.4,21,30.12,10.0,WNW,10.4,-,N/A,,Clear,300,2013-01-24 13:35:00
8:55 AM,41.0,8.1,26,30.15,10.0,North,5.8,9.2,N/A,,Clear,360,2013-01-24 13:55:00
9:15 AM,40.1,9.7,29,30.17,10.0,NNW,4.6,-,N/A,,Clear,330,2013-01-24 14:15:00
9:35 AM,39.2,8.2,28,30.19,10.0,WNW,12.7,19.6,N/A,,Clear,300,2013-01-24 14:35:00
9:55 AM,40.1,7.5,26,30.20,10.0,WNW,12.7,21.9,N/A,,Clear,300,2013-01-24 14:55:00
10:15 AM,40.8,8.4,26,30.22,10.0,NW,13.8,21.9,N/A,,Clear,320,2013-01-24 15:15:00
10:35 AM,41.0,8.8,27,30.23,10.0,NNW,13.8,21.9,N/A,,Clear,330,2013-01-24 15:35:00
10:55 AM,41.5,10.2,28,30.24,10.0,NNW,6.9,16.1,N/A,,Clear,330,2013-01-24 15:55:00
11:15 AM,41.5,10.0,28,30.26,10.0,NW,8.1,-,N/A,,Clear,320,2013-01-24 16:15:00
11:35 AM,42.4,10.9,28,30.27,10.0,NW,11.5,16.1,N/A,,Clear,310,2013-01-24 16:35:00
11:55 AM,42.1,10.2,27,30.28,10.0,NW,13.8,25.3,N/A,,Clear,320,2013-01-24 16:55:00
12:15 PM,41.9,9.0,26,30.29,10.0,NW,11.5,-,N/A,,Clear,310,2013-01-24 17:15:00
12:35 PM,41.2,7.3,25,30.29,10.0,NW,5.8,-,N/A,,Clear,320,2013-01-24 17:35:00
12:55 PM,41.0,5.5,23,30.30,10.0,NNW,10.4,-,N/A,,Clear,340,2013-01-24 17:55:00
1:15 PM,41.0,3.9,21,30.30,10.0,North,5.8,-,N/A,,Clear,10,2013-01-24 18:15:00
1:35 PM,40.8,1.8,20,30.31,10.0,NNE,9.2,-,N/A,,Clear,20,2013-01-24 18:35:00
1:55 PM,41.0,-0.2,18,30.30,10.0,NE,8.1,-,N/A,,Clear,40,2013-01-24 18:55:00
2:15 PM,40.1,-0.6,18,30.31,10.0,North,6.9,-,N/A,,Clear,350,2013-01-24 19:15:00
2:35 PM,39.9,-0.6,18,30.32,10.0,NNE,8.1,-,N/A,,Clear,20,2013-01-24 19:35:00
2:55 PM,40.8,-1.7,17,30.33,10.0,NNE,8.1,-,N/A,,Clear,20,2013-01-24 19:55:00
3:15 PM,39.2,-2.0,18,30.33,10.0,NNW,12.7,-,N/A,,Clear,330,2013-01-24 20:15:00
3:35 PM,39.6,-2.6,17,30.34,10.0,North,10.4,19.6,N/A,,Clear,350,2013-01-24 20:35:00
3:55 PM,39.6,-1.3,18,30.35,10.0,North,10.4,-,N/A,,Clear,350,2013-01-24 20:55:00
4:15 PM,38.3,-2.9,17,30.36,10.0,NNW,9.2,-,N/A,,Clear,340,2013-01-24 21:15:00
4:35 PM,38.1,-1.8,18,30.37,10.0,NNW,8.1,-,N/A,,Clear,340,2013-01-24 21:35:00
4:55 PM,37.4,-1.1,20,30.37,10.0,North,6.9,-,N/A,,Clear,10,2013-01-24 21:55:00
5:15 PM,35.8,-0.8,21,30.38,10.0,North,9.2,-,N/A,,Clear,360,2013-01-24 22:15:00
5:35 PM,34.9,-0.8,22,30.39,10.0,North,8.1,-,N/A,,Clear,350,2013-01-24 22:35:00
5:55 PM,33.8,-0.8,23,30.40,10.0,North,4.6,-,N/A,,Clear,350,2013-01-24 22:55:00
6:15 PM,32.9,-0.0,25,30.40,10.0,North,4.6,-,N/A,,Clear,350,2013-01-24 23:15:00
6:35 PM,31.5,0.7,27,30.41,10.0,NE,5.8,-,N/A,,Clear,40,2013-01-24 23:35:00
6:55 PM,31.5,-0.6,25,30.43,10.0,NE,5.8,-,N/A,,Clear,50,2013-01-24 23:55:00
7:15 PM,30.9,-0.4,26,30.43,10.0,NE,6.9,-,N/A,,Clear,50,2013-01-25 00:15:00
7:35 PM,30.2,0.1,28,30.43,10.0,East,4.6,-,N/A,,Clear,90,2013-01-25 00:35:00
7:55 PM,29.7,1.0,29,30.44,10.0,ENE,5.8,-,N/A,,Clear,70,2013-01-25 00:55:00
8:15 PM,29.3,0.7,29,30.44,10.0,ENE,6.9,-,N/A,,Clear,70,2013-01-25 01:15:00
8:35 PM,28.8,1.4,31,30.45,10.0,East,3.5,-,N/A,,Clear,80,2013-01-25 01:35:00
8:55 PM,28.4,1.4,31,30.46,10.0,East,4.6,-,N/A,,Clear,90,2013-01-25 01:55:00
9:15 PM,28.0,1.4,32,30.45,10.0,East,3.5,-,N/A,,Clear,90,2013-01-25 02:15:00
9:35 PM,27.5,1.9,33,30.45,10.0,East,3.5,-,N/A,,Clear,80,2013-01-25 02:35:00
9:55 PM,27.1,2.1,34,30.46,10.0,Calm,Calm,-,N/A,,Clear,0,2013-01-25 02:55:00
10:15 PM,26.6,3.2,37,30.47,10.0,Calm,Calm,-,N/A,,Clear,0,2013-01-25 03:15:00
10:35 PM,25.9,4.1,39,30.47,10.0,Calm,Calm,-,N/A,,Clear,0,2013-01-25 03:35:00
10:55 PM,25.7,4.1,40,30.48,10.0,ESE,3.5,-,N/A,,Clear,110,2013-01-25 03:55:00
11:15 PM,25.5,4.1,40,30.49,10.0,East,3.5,-,N/A,,Clear,100,2013-01-25 04:15:00
11:35 PM,25.0,4.5,42,30.51,10.0,ESE,3.5,-,N/A,,Clear,120,2013-01-25 04:35:00
11:55 PM,24.4,5.0,44,30.49,10.0,Calm,Calm,-,N/A,,Clear,0,2013-01-25 04:55:00